sensor_id;sensor_type;location;lat;lon;timestamp;temperature;humidity
19292;DHT22;9779;51.756;7.450;2023-02-15T00:01:11;3.60;99.90
19292;DHT22;9779;51.756;7.450;2023-02-15T00:03:37;3.60;99.90
19292;DHT22;9779;51.756;7.450;2023-02-15T00:06:03;3.60;99.90
19292;DHT22;9779;51.756;7.450;2023-02-15T00:08:29;3.60;99.90
19292;DHT22;9779;51.756;7.450;2023-02-15T00:11:04;3.60;99.90
19292;DHT22;9779;51.756;7.450;2023-02-15T00:13:30;3.60;99.90
19292;DHT22;9779;51.756;7.450;2023-02-15T00:16:07;3.60;99.90
19292;DHT22;9779;51.756;7.450;2023-02-15T00:18:33;3.50;99.90
19292;DHT22;9779;51.756;7.450;2023-02-15T00:21:03;3.50;99.90
19292;DHT22;9779;51.756;7.450;2023-02-15T00:23:29;3.50;99.90
19292;DHT22;9779;51.756;7.450;2023-02-15T00:26:11;3.40;99.90
19292;DHT22;9779;51.756;7.450;2023-02-15T00:28:37;3.40;99.90
19292;DHT22;9779;51.756;7.450;2023-02-15T00:31:08;3.40;99.90
19292;DHT22;9779;51.756;7.450;2023-02-15T00:33:34;3.40;99.90
19292;DHT22;9779;51.756;7.450;2023-02-15T00:36:01;3.40;99.90
19292;DHT22;9779;51.756;7.450;2023-02-15T00:38:28;3.30;99.90
19292;DHT22;9779;51.756;7.450;2023-02-15T00:40:55;3.30;99.90
19292;DHT22;9779;51.756;7.450;2023-02-15T00:43:21;3.30;99.90
19292;DHT22;9779;51.756;7.450;2023-02-15T00:45:47;3.30;99.90
19292;DHT22;9779;51.756;7.450;2023-02-15T00:48:12;3.30;99.90
19292;DHT22;9779;51.756;7.450;2023-02-15T00:50:38;3.20;99.90
19292;DHT22;9779;51.756;7.450;2023-02-15T00:53:04;3.20;99.90
19292;DHT22;9779;51.756;7.450;2023-02-15T00:55:29;3.20;99.90
19292;DHT22;9779;51.756;7.450;2023-02-15T00:57:55;3.10;99.90
19292;DHT22;9779;51.756;7.450;2023-02-15T01:00:20;3.00;99.90
19292;DHT22;9779;51.756;7.450;2023-02-15T01:02:46;3.00;99.90
19292;DHT22;9779;51.756;7.450;2023-02-15T01:05:11;3.00;99.90
19292;DHT22;9779;51.756;7.450;2023-02-15T01:07:38;3.00;99.90
19292;DHT22;9779;51.756;7.450;2023-02-15T01:10:05;3.00;99.90
19292;DHT22;9779;51.756;7.450;2023-02-15T01:12:31;2.90;99.90
19292;DHT22;9779;51.756;7.450;2023-02-15T01:14:57;2.90;99.90
19292;DHT22;9779;51.756;7.450;2023-02-15T01:17:23;2.90;99.90
19292;DHT22;9779;51.756;7.450;2023-02-15T01:19:48;2.90;99.90
19292;DHT22;9779;51.756;7.450;2023-02-15T01:22:14;2.80;99.90
19292;DHT22;9779;51.756;7.450;2023-02-15T01:24:39;2.70;99.90
19292;DHT22;9779;51.756;7.450;2023-02-15T01:27:05;2.80;99.90
19292;DHT22;9779;51.756;7.450;2023-02-15T01:29:31;2.80;99.90
19292;DHT22;9779;51.756;7.450;2023-02-15T01:31:56;2.80;99.90
19292;DHT22;9779;51.756;7.450;2023-02-15T01:34:22;2.70;99.90
19292;DHT22;9779;51.756;7.450;2023-02-15T01:36:47;2.70;99.90
19292;DHT22;9779;51.756;7.450;2023-02-15T01:39:13;2.70;99.90
19292;DHT22;9779;51.756;7.450;2023-02-15T01:41:40;2.70;99.90
19292;DHT22;9779;51.756;7.450;2023-02-15T01:47:10;2.60;99.90
19292;DHT22;9779;51.756;7.450;2023-02-15T01:49:39;2.50;99.90
19292;DHT22;9779;51.756;7.450;2023-02-15T01:52:08;2.50;99.90
19292;DHT22;9779;51.756;7.450;2023-02-15T01:54:36;2.50;99.90
19292;DHT22;9779;51.756;7.450;2023-02-15T01:57:06;2.50;99.90
19292;DHT22;9779;51.756;7.450;2023-02-15T01:59:34;2.40;99.90
19292;DHT22;9779;51.756;7.450;2023-02-15T02:02:02;2.40;99.90
19292;DHT22;9779;51.756;7.450;2023-02-15T02:04:41;2.30;99.90
19292;DHT22;9779;51.756;7.450;2023-02-15T02:07:09;2.40;99.90
19292;DHT22;9779;51.756;7.450;2023-02-15T02:09:38;2.30;99.90
19292;DHT22;9779;51.756;7.450;2023-02-15T02:12:03;2.30;99.90
19292;DHT22;9779;51.756;7.450;2023-02-15T02:14:29;2.30;99.90
19292;DHT22;9779;51.756;7.450;2023-02-15T02:22:35;2.20;99.90
19292;DHT22;9779;51.756;7.450;2023-02-15T02:34:36;2.10;99.90
19292;DHT22;9779;51.756;7.450;2023-02-15T02:42:44;2.10;99.90
19292;DHT22;9779;51.756;7.450;2023-02-15T02:45:20;2.00;99.90
19292;DHT22;9779;51.756;7.450;2023-02-15T02:48:00;2.00;99.90
19292;DHT22;9779;51.756;7.450;2023-02-15T02:50:29;2.00;99.90
19292;DHT22;9779;51.756;7.450;2023-02-15T02:52:56;2.00;99.90
19292;DHT22;9779;51.756;7.450;2023-02-15T03:00:30;1.80;99.90
19292;DHT22;9779;51.756;7.450;2023-02-15T03:03:06;1.80;99.90
19292;DHT22;9779;51.756;7.450;2023-02-15T03:05:37;1.80;99.90
19292;DHT22;9779;51.756;7.450;2023-02-15T03:08:05;1.70;99.90
19292;DHT22;9779;51.756;7.450;2023-02-15T03:10:35;1.70;99.90
19292;DHT22;9779;51.756;7.450;2023-02-15T03:13:02;1.70;99.90
19292;DHT22;9779;51.756;7.450;2023-02-15T03:15:34;1.70;99.90
19292;DHT22;9779;51.756;7.450;2023-02-15T03:18:23;1.70;99.90
19292;DHT22;9779;51.756;7.450;2023-02-15T03:20:51;1.70;99.90
19292;DHT22;9779;51.756;7.450;2023-02-15T03:23:21;1.70;99.90
19292;DHT22;9779;51.756;7.450;2023-02-15T03:26:02;1.60;99.90
19292;DHT22;9779;51.756;7.450;2023-02-15T03:28:55;1.70;99.90
19292;DHT22;9779;51.756;7.450;2023-02-15T03:31:24;1.70;99.90
19292;DHT22;9779;51.756;7.450;2023-02-15T03:33:57;1.60;99.90
19292;DHT22;9779;51.756;7.450;2023-02-15T03:36:36;1.60;99.90
19292;DHT22;9779;51.756;7.450;2023-02-15T03:39:08;1.60;99.90
19292;DHT22;9779;51.756;7.450;2023-02-15T03:41:42;1.50;99.90
19292;DHT22;9779;51.756;7.450;2023-02-15T03:44:24;1.50;99.90
19292;DHT22;9779;51.756;7.450;2023-02-15T03:47:03;1.50;99.90
19292;DHT22;9779;51.756;7.450;2023-02-15T03:49:43;1.40;99.90
19292;DHT22;9779;51.756;7.450;2023-02-15T03:52:13;1.50;99.90
19292;DHT22;9779;51.756;7.450;2023-02-15T03:54:40;1.40;99.90
19292;DHT22;9779;51.756;7.450;2023-02-15T03:57:30;1.40;99.90
19292;DHT22;9779;51.756;7.450;2023-02-15T04:00:18;1.40;99.90
19292;DHT22;9779;51.756;7.450;2023-02-15T04:03:11;1.40;99.90
19292;DHT22;9779;51.756;7.450;2023-02-15T04:05:38;1.40;99.90
19292;DHT22;9779;51.756;7.450;2023-02-15T04:08:04;1.40;99.90
19292;DHT22;9779;51.756;7.450;2023-02-15T04:10:30;1.30;99.90
19292;DHT22;9779;51.756;7.450;2023-02-15T04:13:14;1.20;99.90
19292;DHT22;9779;51.756;7.450;2023-02-15T04:15:40;1.20;99.90
19292;DHT22;9779;51.756;7.450;2023-02-15T04:18:24;1.20;99.90
19292;DHT22;9779;51.756;7.450;2023-02-15T04:21:08;1.10;99.90
19292;DHT22;9779;51.756;7.450;2023-02-15T04:23:52;1.10;99.90
19292;DHT22;9779;51.756;7.450;2023-02-15T04:26:37;1.10;99.90
19292;DHT22;9779;51.756;7.450;2023-02-15T04:29:02;1.10;99.90
19292;DHT22;9779;51.756;7.450;2023-02-15T04:31:28;1.10;99.90
19292;DHT22;9779;51.756;7.450;2023-02-15T04:33:53;1.10;99.90
19292;DHT22;9779;51.756;7.450;2023-02-15T04:36:19;1.10;99.90
19292;DHT22;9779;51.756;7.450;2023-02-15T04:38:44;1.10;99.90
19292;DHT22;9779;51.756;7.450;2023-02-15T04:41:10;1.00;99.90
19292;DHT22;9779;51.756;7.450;2023-02-15T04:46:05;1.10;99.90
19292;DHT22;9779;51.756;7.450;2023-02-15T04:48:31;0.90;99.90
19292;DHT22;9779;51.756;7.450;2023-02-15T04:50:56;0.90;99.90
19292;DHT22;9779;51.756;7.450;2023-02-15T04:53:22;0.90;99.90
19292;DHT22;9779;51.756;7.450;2023-02-15T04:55:47;0.90;99.90
19292;DHT22;9779;51.756;7.450;2023-02-15T04:58:13;0.80;99.90
19292;DHT22;9779;51.756;7.450;2023-02-15T05:00:39;0.80;99.90
19292;DHT22;9779;51.756;7.450;2023-02-15T05:03:04;0.80;99.90
19292;DHT22;9779;51.756;7.450;2023-02-15T05:05:30;0.80;99.90
19292;DHT22;9779;51.756;7.450;2023-02-15T05:07:56;0.80;99.90
19292;DHT22;9779;51.756;7.450;2023-02-15T05:10:21;0.80;99.90
19292;DHT22;9779;51.756;7.450;2023-02-15T05:12:48;0.80;99.90
19292;DHT22;9779;51.756;7.450;2023-02-15T05:15:14;0.80;99.90
19292;DHT22;9779;51.756;7.450;2023-02-15T05:17:39;0.80;99.90
19292;DHT22;9779;51.756;7.450;2023-02-15T05:20:06;0.80;99.90
19292;DHT22;9779;51.756;7.450;2023-02-15T05:22:31;0.80;99.90
19292;DHT22;9779;51.756;7.450;2023-02-15T05:24:57;0.70;99.90
19292;DHT22;9779;51.756;7.450;2023-02-15T05:27:41;0.80;99.90
19292;DHT22;9779;51.756;7.450;2023-02-15T05:30:25;0.70;99.90
19292;DHT22;9779;51.756;7.450;2023-02-15T05:32:51;0.60;99.90
19292;DHT22;9779;51.756;7.450;2023-02-15T05:35:16;0.60;99.90
19292;DHT22;9779;51.756;7.450;2023-02-15T05:37:42;0.50;99.90
19292;DHT22;9779;51.756;7.450;2023-02-15T05:40:08;0.60;99.90
19292;DHT22;9779;51.756;7.450;2023-02-15T05:42:34;0.60;99.90
19292;DHT22;9779;51.756;7.450;2023-02-15T05:44:59;0.50;99.90
19292;DHT22;9779;51.756;7.450;2023-02-15T05:47:25;0.50;99.90
19292;DHT22;9779;51.756;7.450;2023-02-15T05:49:50;0.50;99.90
19292;DHT22;9779;51.756;7.450;2023-02-15T05:52:16;0.50;99.90
19292;DHT22;9779;51.756;7.450;2023-02-15T05:54:42;0.50;99.90
19292;DHT22;9779;51.756;7.450;2023-02-15T05:57:07;0.50;99.90
19292;DHT22;9779;51.756;7.450;2023-02-15T05:59:33;0.50;99.90
19292;DHT22;9779;51.756;7.450;2023-02-15T06:01:58;0.50;99.90
19292;DHT22;9779;51.756;7.450;2023-02-15T06:04:24;0.50;99.90
19292;DHT22;9779;51.756;7.450;2023-02-15T06:06:50;0.50;99.90
19292;DHT22;9779;51.756;7.450;2023-02-15T06:09:15;0.40;99.90
19292;DHT22;9779;51.756;7.450;2023-02-15T06:11:44;0.40;99.90
19292;DHT22;9779;51.756;7.450;2023-02-15T06:14:10;0.40;99.90
19292;DHT22;9779;51.756;7.450;2023-02-15T06:16:35;0.50;99.90
19292;DHT22;9779;51.756;7.450;2023-02-15T06:19:01;0.50;99.90
19292;DHT22;9779;51.756;7.450;2023-02-15T06:21:27;0.40;99.90
19292;DHT22;9779;51.756;7.450;2023-02-15T06:23:53;0.30;99.90
19292;DHT22;9779;51.756;7.450;2023-02-15T06:26:19;0.30;99.90
19292;DHT22;9779;51.756;7.450;2023-02-15T06:28:44;0.30;99.90
19292;DHT22;9779;51.756;7.450;2023-02-15T06:31:10;0.20;99.90
19292;DHT22;9779;51.756;7.450;2023-02-15T06:33:35;0.30;99.90
19292;DHT22;9779;51.756;7.450;2023-02-15T06:36:01;0.20;99.90
19292;DHT22;9779;51.756;7.450;2023-02-15T06:38:28;0.20;99.90
19292;DHT22;9779;51.756;7.450;2023-02-15T06:40:54;0.20;99.90
19292;DHT22;9779;51.756;7.450;2023-02-15T06:43:20;0.20;99.90
19292;DHT22;9779;51.756;7.450;2023-02-15T06:45:45;0.20;99.90
19292;DHT22;9779;51.756;7.450;2023-02-15T06:48:11;0.20;99.90
19292;DHT22;9779;51.756;7.450;2023-02-15T06:50:37;0.20;99.90
19292;DHT22;9779;51.756;7.450;2023-02-15T06:53:03;0.20;99.90
19292;DHT22;9779;51.756;7.450;2023-02-15T06:55:29;0.20;99.90
19292;DHT22;9779;51.756;7.450;2023-02-15T06:57:54;0.20;99.90
19292;DHT22;9779;51.756;7.450;2023-02-15T07:00:20;0.20;99.90
19292;DHT22;9779;51.756;7.450;2023-02-15T07:02:47;0.20;99.90
19292;DHT22;9779;51.756;7.450;2023-02-15T07:05:13;0.20;99.90
19292;DHT22;9779;51.756;7.450;2023-02-15T07:07:38;0.10;99.90
19292;DHT22;9779;51.756;7.450;2023-02-15T07:10:04;0.20;99.90
19292;DHT22;9779;51.756;7.450;2023-02-15T07:12:30;0.20;99.90
19292;DHT22;9779;51.756;7.450;2023-02-15T07:15:09;0.20;99.90
19292;DHT22;9779;51.756;7.450;2023-02-15T07:17:35;0.20;99.90
19292;DHT22;9779;51.756;7.450;2023-02-15T07:20:02;0.20;99.90
19292;DHT22;9779;51.756;7.450;2023-02-15T07:22:28;0.10;99.90
19292;DHT22;9779;51.756;7.450;2023-02-15T07:24:54;0.10;99.90
19292;DHT22;9779;51.756;7.450;2023-02-15T07:27:20;0.10;99.90
19292;DHT22;9779;51.756;7.450;2023-02-15T07:29:46;0.10;99.90
19292;DHT22;9779;51.756;7.450;2023-02-15T07:32:12;0.10;99.90
19292;DHT22;9779;51.756;7.450;2023-02-15T07:34:37;0.10;99.90
19292;DHT22;9779;51.756;7.450;2023-02-15T07:37:03;0.10;99.90
19292;DHT22;9779;51.756;7.450;2023-02-15T07:39:29;0.10;99.90
19292;DHT22;9779;51.756;7.450;2023-02-15T07:41:55;0.10;99.90
19292;DHT22;9779;51.756;7.450;2023-02-15T07:44:20;0.10;99.90
19292;DHT22;9779;51.756;7.450;2023-02-15T07:46:46;0.10;99.90
19292;DHT22;9779;51.756;7.450;2023-02-15T07:49:11;0.10;99.90
19292;DHT22;9779;51.756;7.450;2023-02-15T07:51:37;0.10;99.90
19292;DHT22;9779;51.756;7.450;2023-02-15T07:54:02;0.10;99.90
19292;DHT22;9779;51.756;7.450;2023-02-15T07:56:28;0.10;99.90
19292;DHT22;9779;51.756;7.450;2023-02-15T07:58:53;0.20;99.90
19292;DHT22;9779;51.756;7.450;2023-02-15T08:01:35;0.20;99.90
19292;DHT22;9779;51.756;7.450;2023-02-15T08:04:03;0.20;99.90
19292;DHT22;9779;51.756;7.450;2023-02-15T08:06:30;0.30;99.90
19292;DHT22;9779;51.756;7.450;2023-02-15T08:08:56;0.30;99.90
19292;DHT22;9779;51.756;7.450;2023-02-15T08:11:24;0.30;99.90
19292;DHT22;9779;51.756;7.450;2023-02-15T08:13:52;0.40;99.90
19292;DHT22;9779;51.756;7.450;2023-02-15T08:18:56;0.40;99.90
19292;DHT22;9779;51.756;7.450;2023-02-15T08:21:24;0.40;99.90
19292;DHT22;9779;51.756;7.450;2023-02-15T08:23:51;0.40;99.90
19292;DHT22;9779;51.756;7.450;2023-02-15T08:26:16;0.40;99.90
19292;DHT22;9779;51.756;7.450;2023-02-15T08:28:42;0.50;99.90
19292;DHT22;9779;51.756;7.450;2023-02-15T08:31:10;0.50;99.90
19292;DHT22;9779;51.756;7.450;2023-02-15T08:33:38;0.60;99.90
19292;DHT22;9779;51.756;7.450;2023-02-15T08:36:13;0.60;99.90
19292;DHT22;9779;51.756;7.450;2023-02-15T08:38:39;0.70;99.90
19292;DHT22;9779;51.756;7.450;2023-02-15T08:43:51;0.70;99.90
19292;DHT22;9779;51.756;7.450;2023-02-15T08:46:17;0.80;99.90
19292;DHT22;9779;51.756;7.450;2023-02-15T08:48:43;0.80;99.90
19292;DHT22;9779;51.756;7.450;2023-02-15T08:53:41;0.90;99.90
19292;DHT22;9779;51.756;7.450;2023-02-15T08:56:08;0.90;99.90
19292;DHT22;9779;51.756;7.450;2023-02-15T08:58:34;0.90;99.90
19292;DHT22;9779;51.756;7.450;2023-02-15T09:00:59;1.00;99.90
19292;DHT22;9779;51.756;7.450;2023-02-15T09:03:27;1.00;99.90
19292;DHT22;9779;51.756;7.450;2023-02-15T09:05:59;1.10;99.90
19292;DHT22;9779;51.756;7.450;2023-02-15T09:08:26;1.10;99.90
19292;DHT22;9779;51.756;7.450;2023-02-15T09:10:52;1.20;99.90
19292;DHT22;9779;51.756;7.450;2023-02-15T09:13:17;1.20;99.90
19292;DHT22;9779;51.756;7.450;2023-02-15T09:15:43;1.30;99.90
19292;DHT22;9779;51.756;7.450;2023-02-15T09:18:09;1.30;99.90
19292;DHT22;9779;51.756;7.450;2023-02-15T09:20:37;1.40;99.90
19292;DHT22;9779;51.756;7.450;2023-02-15T09:23:03;1.50;99.90
19292;DHT22;9779;51.756;7.450;2023-02-15T09:25:28;1.50;99.90
19292;DHT22;9779;51.756;7.450;2023-02-15T09:27:54;1.60;99.90
19292;DHT22;9779;51.756;7.450;2023-02-15T09:30:20;1.70;99.90
19292;DHT22;9779;51.756;7.450;2023-02-15T09:32:46;1.70;99.90
19292;DHT22;9779;51.756;7.450;2023-02-15T09:35:12;1.90;99.90
19292;DHT22;9779;51.756;7.450;2023-02-15T09:37:37;2.00;99.90
19292;DHT22;9779;51.756;7.450;2023-02-15T09:40:03;2.00;99.90
19292;DHT22;9779;51.756;7.450;2023-02-15T09:43:36;2.10;99.90
19292;DHT22;9779;51.756;7.450;2023-02-15T09:45:47;2.40;99.90
19292;DHT22;9779;51.756;7.450;2023-02-15T09:48:32;3.30;99.90
19292;DHT22;9779;51.756;7.450;2023-02-15T09:56:51;3.30;99.90
19292;DHT22;9779;51.756;7.450;2023-02-15T09:59:30;3.30;99.90
19292;DHT22;9779;51.756;7.450;2023-02-15T10:02:22;3.20;99.90
19292;DHT22;9779;51.756;7.450;2023-02-15T10:05:11;3.30;99.90
19292;DHT22;9779;51.756;7.450;2023-02-15T10:07:51;3.40;99.90
19292;DHT22;9779;51.756;7.450;2023-02-15T10:10:39;3.50;99.90
19292;DHT22;9779;51.756;7.450;2023-02-15T10:13:34;3.60;99.90
19292;DHT22;9779;51.756;7.450;2023-02-15T10:16:14;3.70;99.90
19292;DHT22;9779;51.756;7.450;2023-02-15T10:18:53;3.90;99.90
19292;DHT22;9779;51.756;7.450;2023-02-15T10:22:03;4.00;99.90
19292;DHT22;9779;51.756;7.450;2023-02-15T10:27:11;4.20;99.90
19292;DHT22;9779;51.756;7.450;2023-02-15T10:29:39;4.30;99.90
19292;DHT22;9779;51.756;7.450;2023-02-15T10:35:05;4.60;99.90
19292;DHT22;9779;51.756;7.450;2023-02-15T10:40:33;4.90;99.90
19292;DHT22;9779;51.756;7.450;2023-02-15T10:43:25;5.10;99.90
19292;DHT22;9779;51.756;7.450;2023-02-15T10:59:23;5.80;99.90
19292;DHT22;9779;51.756;7.450;2023-02-15T11:01:55;5.90;99.90
19292;DHT22;9779;51.756;7.450;2023-02-15T11:04:48;6.00;99.90
19292;DHT22;9779;51.756;7.450;2023-02-15T11:07:24;6.30;99.90
19292;DHT22;9779;51.756;7.450;2023-02-15T11:10:01;6.40;99.90
19292;DHT22;9779;51.756;7.450;2023-02-15T11:12:29;6.50;99.90
19292;DHT22;9779;51.756;7.450;2023-02-15T11:15:24;6.60;99.90
19292;DHT22;9779;51.756;7.450;2023-02-15T11:20:35;6.90;99.90
19292;DHT22;9779;51.756;7.450;2023-02-15T11:23:12;7.10;99.90
19292;DHT22;9779;51.756;7.450;2023-02-15T11:25:40;7.20;1.00
19292;DHT22;9779;51.756;7.450;2023-02-15T11:28:18;7.20;1.00
19292;DHT22;9779;51.756;7.450;2023-02-15T11:30:49;7.40;1.00
19292;DHT22;9779;51.756;7.450;2023-02-15T11:33:27;7.60;1.00
19292;DHT22;9779;51.756;7.450;2023-02-15T11:36:07;7.70;1.00
19292;DHT22;9779;51.756;7.450;2023-02-15T11:38:34;7.90;1.00
19292;DHT22;9779;51.756;7.450;2023-02-15T11:48:40;8.40;1.00
19292;DHT22;9779;51.756;7.450;2023-02-15T11:51:26;8.60;1.00
19292;DHT22;9779;51.756;7.450;2023-02-15T11:53:53;9.10;99.90
19292;DHT22;9779;51.756;7.450;2023-02-15T11:56:22;9.30;99.90
19292;DHT22;9779;51.756;7.450;2023-02-15T11:59:32;9.60;25.40
19292;DHT22;9779;51.756;7.450;2023-02-15T12:02:00;9.40;1.00
19292;DHT22;9779;51.756;7.450;2023-02-15T12:04:32;9.40;1.00
19292;DHT22;9779;51.756;7.450;2023-02-15T12:07:20;9.50;99.90
19292;DHT22;9779;51.756;7.450;2023-02-15T12:10:04;9.50;99.90
19292;DHT22;9779;51.756;7.450;2023-02-15T12:12:34;9.60;99.90
19292;DHT22;9779;51.756;7.450;2023-02-15T12:15:04;9.80;99.90
19292;DHT22;9779;51.756;7.450;2023-02-15T12:17:55;10.10;99.90
19292;DHT22;9779;51.756;7.450;2023-02-15T12:20:21;10.20;99.90
19292;DHT22;9779;51.756;7.450;2023-02-15T12:23:04;10.30;1.00
19292;DHT22;9779;51.756;7.450;2023-02-15T12:25:51;10.40;99.90
19292;DHT22;9779;51.756;7.450;2023-02-15T12:28:34;10.50;1.00
19292;DHT22;9779;51.756;7.450;2023-02-15T12:31:03;10.70;1.00
19292;DHT22;9779;51.756;7.450;2023-02-15T12:33:38;11.20;1.00
19292;DHT22;9779;51.756;7.450;2023-02-15T12:36:15;11.20;1.00
19292;DHT22;9779;51.756;7.450;2023-02-15T12:38:42;11.30;99.90
19292;DHT22;9779;51.756;7.450;2023-02-15T12:41:25;11.40;99.90
19292;DHT22;9779;51.756;7.450;2023-02-15T12:46:32;11.60;99.90
19292;DHT22;9779;51.756;7.450;2023-02-15T12:49:18;11.70;1.00
19292;DHT22;9779;51.756;7.450;2023-02-15T12:51:56;11.70;99.90
19292;DHT22;9779;51.756;7.450;2023-02-15T12:56:57;11.80;1.00
19292;DHT22;9779;51.756;7.450;2023-02-15T12:59:23;11.90;1.00
19292;DHT22;9779;51.756;7.450;2023-02-15T13:01:51;12.00;99.90
19292;DHT22;9779;51.756;7.450;2023-02-15T13:04:23;12.00;27.60
19292;DHT22;9779;51.756;7.450;2023-02-15T13:06:52;12.00;1.00
19292;DHT22;9779;51.756;7.450;2023-02-15T13:11:48;12.40;99.90
19292;DHT22;9779;51.756;7.450;2023-02-15T13:14:19;12.50;1.00
19292;DHT22;9779;51.756;7.450;2023-02-15T13:16:48;12.50;73.30
19292;DHT22;9779;51.756;7.450;2023-02-15T13:19:43;12.80;99.90
19292;DHT22;9779;51.756;7.450;2023-02-15T13:22:17;13.00;1.00
19292;DHT22;9779;51.756;7.450;2023-02-15T13:24:46;13.10;1.00
19292;DHT22;9779;51.756;7.450;2023-02-15T13:27:18;13.20;99.90
19292;DHT22;9779;51.756;7.450;2023-02-15T13:29:48;13.30;1.00
19292;DHT22;9779;51.756;7.450;2023-02-15T13:32:25;13.30;1.00
19292;DHT22;9779;51.756;7.450;2023-02-15T13:34:56;13.40;1.00
19292;DHT22;9779;51.756;7.450;2023-02-15T13:37:44;13.50;1.00
19292;DHT22;9779;51.756;7.450;2023-02-15T13:41:06;13.60;99.90
19292;DHT22;9779;51.756;7.450;2023-02-15T13:59:20;14.40;1.00
19292;DHT22;9779;51.756;7.450;2023-02-15T14:01:56;14.40;1.00
19292;DHT22;9779;51.756;7.450;2023-02-15T14:07:53;14.60;1.00
19292;DHT22;9779;51.756;7.450;2023-02-15T14:10:45;14.60;1.00
19292;DHT22;9779;51.756;7.450;2023-02-15T14:16:22;14.90;99.90
19292;DHT22;9779;51.756;7.450;2023-02-15T14:18:55;14.90;99.90
19292;DHT22;9779;51.756;7.450;2023-02-15T14:21:29;15.00;99.90
19292;DHT22;9779;51.756;7.450;2023-02-15T14:32:02;15.40;99.90
19292;DHT22;9779;51.756;7.450;2023-02-15T14:34:54;15.60;99.90
19292;DHT22;9779;51.756;7.450;2023-02-15T14:46:16;16.10;99.90
19292;DHT22;9779;51.756;7.450;2023-02-15T14:48:55;16.10;99.90
19292;DHT22;9779;51.756;7.450;2023-02-15T14:59:55;16.00;99.90
19292;DHT22;9779;51.756;7.450;2023-02-15T15:02:26;15.90;99.90
19292;DHT22;9779;51.756;7.450;2023-02-15T15:05:23;15.70;99.90
19292;DHT22;9779;51.756;7.450;2023-02-15T15:07:56;15.50;99.90
19292;DHT22;9779;51.756;7.450;2023-02-15T15:12:56;15.40;99.90
19292;DHT22;9779;51.756;7.450;2023-02-15T15:20:48;15.00;99.90
19292;DHT22;9779;51.756;7.450;2023-02-15T15:25:53;14.90;99.90
19292;DHT22;9779;51.756;7.450;2023-02-15T15:31:22;14.80;99.90
19292;DHT22;9779;51.756;7.450;2023-02-15T15:34:17;14.70;99.90
19292;DHT22;9779;51.756;7.450;2023-02-15T15:39:43;14.50;99.90
19292;DHT22;9779;51.756;7.450;2023-02-15T15:42:38;14.50;1.00
19292;DHT22;9779;51.756;7.450;2023-02-15T15:48:25;14.30;1.00
19292;DHT22;9779;51.756;7.450;2023-02-15T15:50:59;14.20;1.00
19292;DHT22;9779;51.756;7.450;2023-02-15T15:53:28;14.10;1.00
19292;DHT22;9779;51.756;7.450;2023-02-15T15:56:05;14.00;1.00
19292;DHT22;9779;51.756;7.450;2023-02-15T15:58:33;13.90;1.00
19292;DHT22;9779;51.756;7.450;2023-02-15T16:01:09;13.80;1.00
19292;DHT22;9779;51.756;7.450;2023-02-15T16:03:34;13.80;1.00
19292;DHT22;9779;51.756;7.450;2023-02-15T16:06:00;13.70;1.00
19292;DHT22;9779;51.756;7.450;2023-02-15T16:08:35;13.60;1.00
19292;DHT22;9779;51.756;7.450;2023-02-15T16:11:16;13.50;99.90
19292;DHT22;9779;51.756;7.450;2023-02-15T16:13:42;13.50;99.90
19292;DHT22;9779;51.756;7.450;2023-02-15T16:16:08;13.30;32.20
19292;DHT22;9779;51.756;7.450;2023-02-15T16:18:37;13.30;1.00
19292;DHT22;9779;51.756;7.450;2023-02-15T16:21:04;13.20;99.90
19292;DHT22;9779;51.756;7.450;2023-02-15T16:28:58;12.90;1.00
19292;DHT22;9779;51.756;7.450;2023-02-15T16:31:24;12.70;1.00
19292;DHT22;9779;51.756;7.450;2023-02-15T16:33:53;12.60;99.90
19292;DHT22;9779;51.756;7.450;2023-02-15T16:36:27;12.50;1.00
19292;DHT22;9779;51.756;7.450;2023-02-15T16:41:23;12.40;37.60
19292;DHT22;9779;51.756;7.450;2023-02-15T16:43:50;12.30;99.90
19292;DHT22;9779;51.756;7.450;2023-02-15T16:48:51;12.10;99.90
19292;DHT22;9779;51.756;7.450;2023-02-15T16:51:26;12.00;1.00
19292;DHT22;9779;51.756;7.450;2023-02-15T16:53:54;11.90;99.90
19292;DHT22;9779;51.756;7.450;2023-02-15T16:56:28;11.80;1.00
19292;DHT22;9779;51.756;7.450;2023-02-15T16:58:56;11.80;1.00
19292;DHT22;9779;51.756;7.450;2023-02-15T17:01:25;11.70;1.00
19292;DHT22;9779;51.756;7.450;2023-02-15T17:04:11;11.60;1.00
19292;DHT22;9779;51.756;7.450;2023-02-15T17:06:37;11.50;1.00
19292;DHT22;9779;51.756;7.450;2023-02-15T17:09:14;11.40;3.70
19292;DHT22;9779;51.756;7.450;2023-02-15T17:11:44;11.30;1.00
19292;DHT22;9779;51.756;7.450;2023-02-15T17:14:11;11.20;1.00
19292;DHT22;9779;51.756;7.450;2023-02-15T17:19:20;11.10;1.00
19292;DHT22;9779;51.756;7.450;2023-02-15T17:21:52;11.00;25.20
19292;DHT22;9779;51.756;7.450;2023-02-15T17:26:58;10.90;99.90
19292;DHT22;9779;51.756;7.450;2023-02-15T17:29:36;10.80;93.60
19292;DHT22;9779;51.756;7.450;2023-02-15T17:32:04;10.80;1.00
19292;DHT22;9779;51.756;7.450;2023-02-15T17:37:49;10.60;1.00
19292;DHT22;9779;51.756;7.450;2023-02-15T17:40:44;10.50;1.00
19292;DHT22;9779;51.756;7.450;2023-02-15T17:43:09;10.40;99.90
19292;DHT22;9779;51.756;7.450;2023-02-15T17:45:46;10.40;1.00
19292;DHT22;9779;51.756;7.450;2023-02-15T17:48:21;10.30;99.90
19292;DHT22;9779;51.756;7.450;2023-02-15T17:50:46;10.30;1.00
19292;DHT22;9779;51.756;7.450;2023-02-15T17:53:13;10.20;99.90
19292;DHT22;9779;51.756;7.450;2023-02-15T17:55:40;10.20;1.00
19292;DHT22;9779;51.756;7.450;2023-02-15T17:58:12;10.10;99.90
19292;DHT22;9779;51.756;7.450;2023-02-15T18:00:42;10.00;99.90
19292;DHT22;9779;51.756;7.450;2023-02-15T18:06:21;9.90;99.90
19292;DHT22;9779;51.756;7.450;2023-02-15T18:09:07;9.80;99.90
19292;DHT22;9779;51.756;7.450;2023-02-15T18:11:53;9.80;99.90
19292;DHT22;9779;51.756;7.450;2023-02-15T18:14:18;9.70;99.90
19292;DHT22;9779;51.756;7.450;2023-02-15T18:16:44;9.70;99.90
19292;DHT22;9779;51.756;7.450;2023-02-15T18:19:16;9.60;99.90
19292;DHT22;9779;51.756;7.450;2023-02-15T18:21:42;9.60;99.90
19292;DHT22;9779;51.756;7.450;2023-02-15T18:24:22;9.50;1.00
19292;DHT22;9779;51.756;7.450;2023-02-15T18:26:52;9.50;1.00
19292;DHT22;9779;51.756;7.450;2023-02-15T18:29:18;9.40;1.00
19292;DHT22;9779;51.756;7.450;2023-02-15T18:31:45;9.40;1.00
19292;DHT22;9779;51.756;7.450;2023-02-15T18:34:26;9.30;1.00
19292;DHT22;9779;51.756;7.450;2023-02-15T18:36:53;9.30;1.00
19292;DHT22;9779;51.756;7.450;2023-02-15T18:46:10;9.10;1.00
19292;DHT22;9779;51.756;7.450;2023-02-15T18:48:36;9.00;99.90
19292;DHT22;9779;51.756;7.450;2023-02-15T18:51:01;8.90;99.90
19292;DHT22;9779;51.756;7.450;2023-02-15T18:53:27;8.90;1.00
19292;DHT22;9779;51.756;7.450;2023-02-15T18:55:53;8.90;1.00
19292;DHT22;9779;51.756;7.450;2023-02-15T18:58:20;8.90;1.00
19292;DHT22;9779;51.756;7.450;2023-02-15T19:00:47;8.90;1.00
19292;DHT22;9779;51.756;7.450;2023-02-15T19:03:15;8.90;1.00
19292;DHT22;9779;51.756;7.450;2023-02-15T19:08:18;8.90;1.00
19292;DHT22;9779;51.756;7.450;2023-02-15T19:10:46;9.00;1.00
19292;DHT22;9779;51.756;7.450;2023-02-15T19:13:13;8.90;1.00
19292;DHT22;9779;51.756;7.450;2023-02-15T19:15:39;8.90;99.90
19292;DHT22;9779;51.756;7.450;2023-02-15T19:18:05;8.90;1.00
19292;DHT22;9779;51.756;7.450;2023-02-15T19:20:35;8.90;1.00
19292;DHT22;9779;51.756;7.450;2023-02-15T19:23:01;8.90;1.00
19292;DHT22;9779;51.756;7.450;2023-02-15T19:25:29;8.80;99.90
19292;DHT22;9779;51.756;7.450;2023-02-15T19:27:56;8.80;99.90